JES3164 SAZN-SABE
Flight info
| Callsign | JES3164 |
|---|---|
| Flight time | 1h 13m |
| Altitude | 37000 |
| Route | NIDB1G NIDBA ISMIL UT655 ASADA ASAD8Q |
| Aircraft | A320/M-SDE3FGHIRWY/LB1 |
Departure
| Time | 2026-05-06 02:09 |
|---|---|
| Airport | Presidente Perón International Airport (SAZN) |
Arrival
| Time | 2026-05-06 03:22 |
|---|---|
| Airport | Aeroparque Jorge Newbery (SABE) |
| Time | Latitude | Longitude | Altitude | Speed | Heading |
|---|---|---|---|---|---|
| 2026-05-06 01:22 | -38.95153 | -68.14158 | 904 ft | 0 kts | 179° |
| 2026-05-06 02:03 | -38.95139 | -68.14158 | 905 ft | 4 kts | 173° |
| 2026-05-06 02:03 | -38.95114 | -68.14166 | 907 ft | 4 kts | 150° |
| 2026-05-06 02:03 | -38.95096 | -68.14187 | 904 ft | 4 kts | 105° |
| 2026-05-06 02:04 | -38.95094 | -68.14198 | 904 ft | 0 kts | 91° |
| 2026-05-06 02:06 | -38.95094 | -68.14192 | 904 ft | 3 kts | 91° |
| 2026-05-06 02:06 | -38.95094 | -68.14151 | 906 ft | 7 kts | 91° |
| 2026-05-06 02:07 | -38.95082 | -68.14133 | 909 ft | 0 kts | 321° |
| 2026-05-06 02:07 | -38.95061 | -68.14125 | 904 ft | 9 kts | 16° |
| 2026-05-06 02:07 | -38.94986 | -68.14115 | 904 ft | 11 kts | 1° |
| 2026-05-06 02:07 | -38.94926 | -68.14113 | 906 ft | 8 kts | 1° |
| 2026-05-06 02:08 | -38.94905 | -68.14152 | 906 ft | 5 kts | 271° |
| 2026-05-06 02:08 | -38.94903 | -68.14223 | 905 ft | 32 kts | 271° |
| 2026-05-06 02:08 | -38.94902 | -68.14868 | 901 ft | 109 kts | 270° |
| 2026-05-06 02:08 | -38.94900 | -68.16105 | 910 ft | 165 kts | 270° |
| 2026-05-06 02:09 | -38.94904 | -68.17683 | 1354 ft | 183 kts | 269° |
| 2026-05-06 02:09 | -38.94915 | -68.19372 | 2019 ft | 195 kts | 272° |
| 2026-05-06 02:09 | -38.94936 | -68.21162 | 2492 ft | 206 kts | 274° |
| 2026-05-06 02:09 | -38.94933 | -68.23068 | 2805 ft | 224 kts | 277° |
| 2026-05-06 02:10 | -38.94899 | -68.25152 | 3275 ft | 238 kts | 279° |
| 2026-05-06 02:10 | -38.94751 | -68.27262 | 3861 ft | 246 kts | 293° |
| 2026-05-06 02:10 | -38.93901 | -68.29154 | 4512 ft | 245 kts | 319° |
| 2026-05-06 02:10 | -38.92480 | -68.30305 | 5332 ft | 244 kts | 342° |
| 2026-05-06 02:11 | -38.90768 | -68.30457 | 6155 ft | 255 kts | 7° |
| 2026-05-06 02:11 | -38.89126 | -68.29430 | 6867 ft | 277 kts | 36° |
| 2026-05-06 02:11 | -38.88063 | -68.27319 | 7605 ft | 297 kts | 63° |
| 2026-05-06 02:11 | -38.87398 | -68.24734 | 8371 ft | 304 kts | 66° |
| 2026-05-06 02:12 | -38.86789 | -68.22113 | 9117 ft | 309 kts | 66° |
| 2026-05-06 02:12 | -38.86188 | -68.19444 | 9846 ft | 314 kts | 66° |
| 2026-05-06 02:12 | -38.85579 | -68.16757 | 10328 ft | 327 kts | 67° |
| 2026-05-06 02:12 | -38.84907 | -68.13871 | 10510 ft | 350 kts | 67° |
| 2026-05-06 02:13 | -38.84181 | -68.10801 | 10783 ft | 366 kts | 67° |
| 2026-05-06 02:13 | -38.83334 | -68.07703 | 11340 ft | 369 kts | 61° |
| 2026-05-06 02:13 | -38.82331 | -68.04649 | 11985 ft | 372 kts | 60° |
| 2026-05-06 02:13 | -38.81288 | -68.01601 | 12622 ft | 375 kts | 59° |
| 2026-05-06 02:14 | -38.80215 | -67.98533 | 13253 ft | 379 kts | 59° |
| 2026-05-06 02:14 | -38.79127 | -67.95436 | 13855 ft | 383 kts | 59° |
| 2026-05-06 02:14 | -38.78033 | -67.92307 | 14403 ft | 387 kts | 59° |
| 2026-05-06 02:14 | -38.76933 | -67.89145 | 14951 ft | 390 kts | 59° |
| 2026-05-06 02:15 | -38.75825 | -67.85950 | 15486 ft | 394 kts | 59° |
| 2026-05-06 02:15 | -38.74711 | -67.82727 | 16026 ft | 397 kts | 59° |
| 2026-05-06 02:15 | -38.73589 | -67.79477 | 16565 ft | 401 kts | 59° |
| 2026-05-06 02:15 | -38.72458 | -67.76203 | 17086 ft | 404 kts | 59° |
| 2026-05-06 02:16 | -38.71312 | -67.72899 | 17602 ft | 408 kts | 59° |
| 2026-05-06 02:16 | -38.70153 | -67.69556 | 18117 ft | 412 kts | 59° |
| 2026-05-06 02:16 | -38.69379 | -67.67326 | 18431 ft | 415 kts | 59° |
| 2026-05-06 02:16 | -38.67819 | -67.62831 | 19060 ft | 419 kts | 59° |
| 2026-05-06 02:17 | -38.66629 | -67.59411 | 19552 ft | 422 kts | 58° |
| 2026-05-06 02:17 | -38.65428 | -67.55971 | 20032 ft | 425 kts | 58° |
| 2026-05-06 02:17 | -38.64216 | -67.52503 | 20484 ft | 428 kts | 58° |
| 2026-05-06 02:17 | -38.62997 | -67.49012 | 20944 ft | 431 kts | 58° |
| 2026-05-06 02:18 | -38.62170 | -67.46643 | 21247 ft | 433 kts | 58° |
| 2026-05-06 02:18 | -38.60532 | -67.41966 | 21833 ft | 437 kts | 58° |
| 2026-05-06 02:18 | -38.59690 | -67.39564 | 22115 ft | 439 kts | 58° |
| 2026-05-06 02:18 | -38.58434 | -67.35997 | 22543 ft | 442 kts | 58° |
| 2026-05-06 02:19 | -38.57163 | -67.32394 | 22946 ft | 445 kts | 58° |
| 2026-05-06 02:19 | -38.55886 | -67.28771 | 23372 ft | 448 kts | 58° |
| 2026-05-06 02:19 | -38.54620 | -67.25179 | 23735 ft | 451 kts | 58° |
| 2026-05-06 02:19 | -38.53326 | -67.21510 | 24062 ft | 454 kts | 58° |
| 2026-05-06 02:20 | -38.50710 | -67.14114 | 24753 ft | 459 kts | 58° |
| 2026-05-06 02:20 | -38.49390 | -67.10385 | 25108 ft | 462 kts | 58° |
| 2026-05-06 02:20 | -38.48064 | -67.06640 | 25462 ft | 464 kts | 58° |
| 2026-05-06 02:21 | -38.46733 | -67.02886 | 25812 ft | 466 kts | 58° |
| 2026-05-06 02:21 | -38.45392 | -66.99109 | 26166 ft | 468 kts | 58° |
| 2026-05-06 02:21 | -38.44045 | -66.95315 | 26511 ft | 470 kts | 58° |
| 2026-05-06 02:21 | -38.42691 | -66.91510 | 26856 ft | 472 kts | 58° |
| 2026-05-06 02:22 | -38.41329 | -66.87693 | 27169 ft | 474 kts | 58° |
| 2026-05-06 02:22 | -38.39958 | -66.83857 | 27503 ft | 477 kts | 58° |
| 2026-05-06 02:22 | -38.38580 | -66.80007 | 27860 ft | 479 kts | 58° |
| 2026-05-06 02:22 | -38.37191 | -66.76134 | 28216 ft | 481 kts | 58° |
| 2026-05-06 02:23 | -38.35814 | -66.72303 | 28558 ft | 483 kts | 58° |
| 2026-05-06 02:23 | -38.34410 | -66.68402 | 28893 ft | 485 kts | 58° |
| 2026-05-06 02:23 | -38.32971 | -66.64519 | 29227 ft | 485 kts | 56° |
| 2026-05-06 02:23 | -38.31443 | -66.60697 | 29675 ft | 482 kts | 54° |
| 2026-05-06 02:24 | -38.29857 | -66.56945 | 30111 ft | 480 kts | 53° |
| 2026-05-06 02:24 | -38.28238 | -66.53221 | 30487 ft | 479 kts | 53° |
| 2026-05-06 02:24 | -38.26612 | -66.49511 | 30847 ft | 480 kts | 53° |
| 2026-05-06 02:24 | -38.24995 | -66.45795 | 31176 ft | 480 kts | 53° |
| 2026-05-06 02:25 | -38.23392 | -66.42061 | 31543 ft | 480 kts | 53° |
| 2026-05-06 02:25 | -38.21806 | -66.38321 | 31918 ft | 481 kts | 54° |
| 2026-05-06 02:25 | -38.20229 | -66.34575 | 32273 ft | 481 kts | 53° |
| 2026-05-06 02:25 | -38.18647 | -66.30817 | 32627 ft | 482 kts | 53° |
| 2026-05-06 02:26 | -38.17083 | -66.27112 | 32983 ft | 482 kts | 53° |
| 2026-05-06 02:26 | -38.15471 | -66.23309 | 33329 ft | 483 kts | 53° |
| 2026-05-06 02:26 | -38.13891 | -66.19598 | 33649 ft | 484 kts | 53° |
| 2026-05-06 02:26 | -38.12284 | -66.15837 | 33971 ft | 485 kts | 53° |
| 2026-05-06 02:27 | -38.10676 | -66.12073 | 34256 ft | 485 kts | 53° |
| 2026-05-06 02:27 | -38.09064 | -66.08308 | 34546 ft | 485 kts | 53° |
| 2026-05-06 02:27 | -38.07450 | -66.04543 | 34813 ft | 486 kts | 53° |
| 2026-05-06 02:27 | -38.05838 | -66.00782 | 35076 ft | 486 kts | 53° |
| 2026-05-06 02:28 | -38.04219 | -65.97009 | 35344 ft | 486 kts | 53° |
| 2026-05-06 02:28 | -38.02599 | -65.93234 | 35605 ft | 487 kts | 53° |
| 2026-05-06 02:28 | -38.00981 | -65.89463 | 35813 ft | 488 kts | 53° |
| 2026-05-06 02:28 | -37.99355 | -65.85681 | 36034 ft | 489 kts | 53° |
| 2026-05-06 02:29 | -37.97726 | -65.81903 | 36276 ft | 489 kts | 53° |
| 2026-05-06 02:29 | -37.96090 | -65.78118 | 36507 ft | 490 kts | 53° |
| 2026-05-06 02:29 | -37.94453 | -65.74330 | 36742 ft | 490 kts | 53° |
| 2026-05-06 02:29 | -37.92812 | -65.70534 | 36907 ft | 492 kts | 53° |
| 2026-05-06 02:30 | -37.91155 | -65.66715 | 36935 ft | 497 kts | 53° |
| 2026-05-06 02:30 | -37.87796 | -65.58989 | 36930 ft | 505 kts | 53° |
| 2026-05-06 02:31 | -37.84372 | -65.51114 | 36940 ft | 516 kts | 53° |
| 2026-05-06 02:31 | -37.80873 | -65.43077 | 36924 ft | 523 kts | 53° |
| 2026-05-06 02:32 | -37.77379 | -65.35045 | 36942 ft | 525 kts | 53° |
| 2026-05-06 02:32 | -37.73844 | -65.26966 | 36936 ft | 525 kts | 53° |
| 2026-05-06 02:33 | -37.70290 | -65.18894 | 36940 ft | 526 kts | 53° |
| 2026-05-06 02:33 | -37.69110 | -65.16217 | 36941 ft | 526 kts | 53° |
| 2026-05-06 02:34 | -37.63175 | -65.02736 | 36951 ft | 526 kts | 53° |
| 2026-05-06 02:34 | -37.59602 | -64.94661 | 36935 ft | 526 kts | 53° |
| 2026-05-06 02:35 | -37.56022 | -64.86599 | 36937 ft | 527 kts | 53° |
| 2026-05-06 02:35 | -37.52455 | -64.78580 | 36937 ft | 528 kts | 53° |
| 2026-05-06 02:36 | -37.48861 | -64.70514 | 36938 ft | 528 kts | 53° |
| 2026-05-06 02:36 | -37.45260 | -64.62463 | 36942 ft | 528 kts | 53° |
| 2026-05-06 02:37 | -37.41656 | -64.54415 | 36947 ft | 528 kts | 53° |
| 2026-05-06 02:37 | -37.38045 | -64.46368 | 36949 ft | 528 kts | 53° |
| 2026-05-06 02:38 | -37.34424 | -64.38339 | 36920 ft | 529 kts | 52° |
| 2026-05-06 02:38 | -37.30769 | -64.30303 | 36930 ft | 530 kts | 52° |
| 2026-05-06 02:39 | -37.27083 | -64.22258 | 36930 ft | 532 kts | 52° |
| 2026-05-06 02:39 | -37.23388 | -64.14216 | 36937 ft | 532 kts | 52° |
| 2026-05-06 02:40 | -37.19682 | -64.06167 | 36941 ft | 533 kts | 52° |
| 2026-05-06 02:40 | -37.15980 | -63.98118 | 36927 ft | 533 kts | 52° |
| 2026-05-06 02:41 | -37.12266 | -63.90064 | 36932 ft | 534 kts | 52° |
| 2026-05-06 02:41 | -37.08536 | -63.82020 | 36938 ft | 534 kts | 52° |
| 2026-05-06 02:42 | -37.04824 | -63.74037 | 36935 ft | 534 kts | 52° |
| 2026-05-06 02:42 | -37.01086 | -63.65999 | 36939 ft | 535 kts | 52° |
| 2026-05-06 02:43 | -36.97341 | -63.57966 | 36942 ft | 535 kts | 52° |
| 2026-05-06 02:43 | -36.93582 | -63.49937 | 36948 ft | 535 kts | 52° |
| 2026-05-06 02:44 | -36.89811 | -63.41910 | 36910 ft | 535 kts | 52° |
| 2026-05-06 02:44 | -36.86034 | -63.33878 | 36944 ft | 536 kts | 52° |
| 2026-05-06 02:45 | -36.82253 | -63.25843 | 36949 ft | 537 kts | 53° |
| 2026-05-06 02:45 | -36.78471 | -63.17809 | 36958 ft | 537 kts | 53° |
| 2026-05-06 02:46 | -36.74707 | -63.09841 | 36939 ft | 537 kts | 53° |
| 2026-05-06 02:46 | -36.70900 | -63.01833 | 36951 ft | 537 kts | 52° |
| 2026-05-06 02:47 | -36.67088 | -62.93821 | 36955 ft | 537 kts | 53° |
| 2026-05-06 02:47 | -36.63274 | -62.85820 | 36962 ft | 537 kts | 52° |
| 2026-05-06 02:48 | -36.59455 | -62.77837 | 36957 ft | 537 kts | 52° |
| 2026-05-06 02:48 | -36.55618 | -62.69837 | 36962 ft | 537 kts | 52° |
| 2026-05-06 02:49 | -36.51784 | -62.61847 | 36964 ft | 538 kts | 52° |
| 2026-05-06 02:49 | -36.47950 | -62.53864 | 36942 ft | 538 kts | 52° |
| 2026-05-06 02:50 | -36.44101 | -62.45890 | 36943 ft | 538 kts | 53° |
| 2026-05-06 02:50 | -36.40267 | -62.37968 | 36949 ft | 539 kts | 53° |
| 2026-05-06 02:51 | -36.36405 | -62.29987 | 36952 ft | 539 kts | 53° |
| 2026-05-06 02:51 | -36.32519 | -62.22013 | 36948 ft | 539 kts | 53° |
| 2026-05-06 02:52 | -36.28635 | -62.14054 | 36957 ft | 540 kts | 53° |
| 2026-05-06 02:52 | -36.24752 | -62.06090 | 36963 ft | 540 kts | 53° |
| 2026-05-06 02:53 | -36.20859 | -61.98132 | 36969 ft | 540 kts | 53° |
| 2026-05-06 02:53 | -36.16962 | -61.90188 | 36963 ft | 540 kts | 53° |
| 2026-05-06 02:54 | -36.13079 | -61.82290 | 36970 ft | 540 kts | 53° |
| 2026-05-06 02:54 | -36.09171 | -61.74357 | 36974 ft | 540 kts | 53° |
| 2026-05-06 02:55 | -36.05263 | -61.66423 | 36975 ft | 541 kts | 53° |
| 2026-05-06 02:55 | -36.01352 | -61.58485 | 36947 ft | 541 kts | 53° |
| 2026-05-06 02:56 | -35.97433 | -61.50551 | 36962 ft | 541 kts | 53° |
| 2026-05-06 02:56 | -35.93506 | -61.42631 | 36975 ft | 541 kts | 53° |
| 2026-05-06 02:57 | -35.89565 | -61.34721 | 36985 ft | 541 kts | 53° |
| 2026-05-06 02:57 | -35.85623 | -61.26791 | 36986 ft | 542 kts | 53° |
| 2026-05-06 02:58 | -35.81725 | -61.18895 | 36989 ft | 542 kts | 53° |
| 2026-05-06 02:58 | -35.77803 | -61.10957 | 36990 ft | 542 kts | 53° |
| 2026-05-06 02:59 | -35.73864 | -61.03026 | 36976 ft | 542 kts | 53° |
| 2026-05-06 02:59 | -35.69917 | -60.95116 | 36995 ft | 542 kts | 53° |
| 2026-05-06 03:00 | -35.65976 | -60.87206 | 36998 ft | 542 kts | 53° |
| 2026-05-06 03:00 | -35.62029 | -60.79298 | 36994 ft | 542 kts | 53° |
| 2026-05-06 03:01 | -35.58112 | -60.71486 | 36986 ft | 541 kts | 53° |
| 2026-05-06 03:01 | -35.54119 | -60.63563 | 36954 ft | 541 kts | 53° |
| 2026-05-06 03:02 | -35.50182 | -60.55753 | 36973 ft | 541 kts | 53° |
| 2026-05-06 03:02 | -35.48200 | -60.51817 | 36613 ft | 539 kts | 53° |
| 2026-05-06 03:02 | -35.46234 | -60.47919 | 36139 ft | 535 kts | 53° |
| 2026-05-06 03:02 | -35.44280 | -60.44045 | 35574 ft | 533 kts | 53° |
| 2026-05-06 03:03 | -35.42331 | -60.40182 | 35013 ft | 531 kts | 53° |
| 2026-05-06 03:03 | -35.40390 | -60.36341 | 34429 ft | 530 kts | 53° |
| 2026-05-06 03:03 | -35.38445 | -60.32499 | 33819 ft | 529 kts | 53° |
| 2026-05-06 03:03 | -35.36503 | -60.28677 | 33112 ft | 528 kts | 53° |
| 2026-05-06 03:04 | -35.34558 | -60.24864 | 32393 ft | 528 kts | 53° |
| 2026-05-06 03:04 | -35.32635 | -60.21100 | 31675 ft | 527 kts | 53° |
| 2026-05-06 03:04 | -35.30693 | -60.17296 | 30937 ft | 526 kts | 54° |
| 2026-05-06 03:04 | -35.28760 | -60.13502 | 30222 ft | 525 kts | 54° |
| 2026-05-06 03:05 | -35.27457 | -60.10943 | 29693 ft | 524 kts | 54° |
| 2026-05-06 03:05 | -35.24909 | -60.05944 | 28570 ft | 522 kts | 54° |
| 2026-05-06 03:05 | -35.23614 | -60.03408 | 28160 ft | 517 kts | 54° |
| 2026-05-06 03:05 | -35.21107 | -59.98505 | 27335 ft | 509 kts | 54° |
| 2026-05-06 03:06 | -35.19845 | -59.96042 | 26900 ft | 505 kts | 54° |
| 2026-05-06 03:06 | -35.17979 | -59.92409 | 26129 ft | 503 kts | 54° |
| 2026-05-06 03:06 | -35.16124 | -59.88802 | 25462 ft | 498 kts | 54° |
| 2026-05-06 03:06 | -35.14287 | -59.85234 | 24803 ft | 493 kts | 54° |
| 2026-05-06 03:07 | -35.12470 | -59.81709 | 24214 ft | 488 kts | 54° |
| 2026-05-06 03:07 | -35.10665 | -59.78213 | 23513 ft | 485 kts | 54° |
| 2026-05-06 03:07 | -35.08892 | -59.74782 | 22729 ft | 482 kts | 54° |
| 2026-05-06 03:07 | -35.07111 | -59.71336 | 21983 ft | 478 kts | 54° |
| 2026-05-06 03:08 | -35.05343 | -59.67917 | 21357 ft | 472 kts | 55° |
| 2026-05-06 03:08 | -35.03601 | -59.64546 | 20829 ft | 467 kts | 55° |
| 2026-05-06 03:08 | -35.01873 | -59.61213 | 20298 ft | 462 kts | 54° |
| 2026-05-06 03:08 | -35.00128 | -59.57942 | 19754 ft | 456 kts | 54° |
| 2026-05-06 03:09 | -34.98370 | -59.54738 | 19219 ft | 451 kts | 53° |
| 2026-05-06 03:09 | -34.96615 | -59.51591 | 18681 ft | 446 kts | 53° |
| 2026-05-06 03:09 | -34.94876 | -59.48485 | 18137 ft | 444 kts | 53° |
| 2026-05-06 03:09 | -34.93131 | -59.45361 | 17563 ft | 446 kts | 53° |
| 2026-05-06 03:10 | -34.91391 | -59.42230 | 17036 ft | 444 kts | 53° |
| 2026-05-06 03:10 | -34.89670 | -59.39113 | 16483 ft | 441 kts | 54° |
| 2026-05-06 03:10 | -34.87972 | -59.36027 | 15947 ft | 437 kts | 54° |
| 2026-05-06 03:10 | -34.86290 | -59.32971 | 15402 ft | 433 kts | 54° |
| 2026-05-06 03:11 | -34.84641 | -59.29979 | 14872 ft | 429 kts | 54° |
| 2026-05-06 03:11 | -34.82988 | -59.26983 | 14339 ft | 424 kts | 54° |
| 2026-05-06 03:11 | -34.81344 | -59.24012 | 13808 ft | 420 kts | 54° |
| 2026-05-06 03:11 | -34.79717 | -59.21075 | 13238 ft | 416 kts | 54° |
| 2026-05-06 03:12 | -34.78105 | -59.18170 | 12706 ft | 412 kts | 54° |
| 2026-05-06 03:12 | -34.76512 | -59.15300 | 12194 ft | 407 kts | 55° |
| 2026-05-06 03:12 | -34.74938 | -59.12469 | 11670 ft | 402 kts | 55° |
| 2026-05-06 03:12 | -34.73381 | -59.09671 | 11176 ft | 397 kts | 55° |
| 2026-05-06 03:13 | -34.71839 | -59.06906 | 10667 ft | 392 kts | 55° |
| 2026-05-06 03:13 | -34.70316 | -59.04178 | 10208 ft | 386 kts | 55° |
| 2026-05-06 03:13 | -34.68832 | -59.01514 | 10098 ft | 385 kts | 55° |
| 2026-05-06 03:13 | -34.67330 | -58.98816 | 9842 ft | 383 kts | 56° |
| 2026-05-06 03:14 | -34.65858 | -58.96174 | 9246 ft | 371 kts | 55° |
| 2026-05-06 03:14 | -34.64453 | -58.93654 | 8617 ft | 352 kts | 55° |
| 2026-05-06 03:14 | -34.63105 | -58.91238 | 8003 ft | 338 kts | 55° |
| 2026-05-06 03:14 | -34.61808 | -58.88916 | 7413 ft | 327 kts | 54° |
| 2026-05-06 03:15 | -34.60568 | -58.86698 | 7181 ft | 306 kts | 54° |
| 2026-05-06 03:15 | -34.59391 | -58.84592 | 7062 ft | 296 kts | 54° |
| 2026-05-06 03:15 | -34.58245 | -58.82545 | 6809 ft | 291 kts | 54° |
| 2026-05-06 03:15 | -34.57114 | -58.80527 | 6332 ft | 287 kts | 54° |
| 2026-05-06 03:16 | -34.55991 | -58.78527 | 5747 ft | 286 kts | 54° |
| 2026-05-06 03:16 | -34.54901 | -58.76514 | 5179 ft | 284 kts | 56° |
| 2026-05-06 03:16 | -34.53855 | -58.74528 | 4625 ft | 282 kts | 57° |
| 2026-05-06 03:16 | -34.52815 | -58.72531 | 4086 ft | 278 kts | 57° |
| 2026-05-06 03:17 | -34.51798 | -58.70575 | 3699 ft | 269 kts | 57° |
| 2026-05-06 03:17 | -34.50834 | -58.68725 | 3571 ft | 250 kts | 57° |
| 2026-05-06 03:17 | -34.49938 | -58.67013 | 3465 ft | 231 kts | 57° |
| 2026-05-06 03:17 | -34.49097 | -58.65411 | 3372 ft | 222 kts | 57° |
| 2026-05-06 03:18 | -34.48268 | -58.63840 | 3275 ft | 220 kts | 57° |
| 2026-05-06 03:18 | -34.47447 | -58.62286 | 3173 ft | 218 kts | 56° |
| 2026-05-06 03:18 | -34.46674 | -58.60714 | 3078 ft | 214 kts | 68° |
| 2026-05-06 03:18 | -34.46507 | -58.58978 | 3001 ft | 205 kts | 99° |
| 2026-05-06 03:19 | -34.47057 | -58.57396 | 2850 ft | 205 kts | 122° |
| 2026-05-06 03:19 | -34.47857 | -58.55979 | 2610 ft | 203 kts | 122° |
| 2026-05-06 03:19 | -34.48650 | -58.54579 | 2374 ft | 199 kts | 122° |
| 2026-05-06 03:19 | -34.49419 | -58.53212 | 2100 ft | 192 kts | 121° |
| 2026-05-06 03:20 | -34.50864 | -58.50633 | 1606 ft | 173 kts | 120° |
| 2026-05-06 03:20 | -34.51505 | -58.49489 | 1407 ft | 158 kts | 120° |
| 2026-05-06 03:20 | -34.52095 | -58.48433 | 1194 ft | 146 kts | 120° |
| 2026-05-06 03:21 | -34.52653 | -58.47431 | 1001 ft | 142 kts | 120° |
| 2026-05-06 03:21 | -34.53198 | -58.46447 | 815 ft | 140 kts | 121° |
| 2026-05-06 03:21 | -34.53747 | -58.45480 | 637 ft | 138 kts | 122° |
| 2026-05-06 03:21 | -34.54278 | -58.44533 | 451 ft | 134 kts | 122° |
| 2026-05-06 03:22 | -34.54801 | -58.43588 | 262 ft | 135 kts | 123° |
| 2026-05-06 03:22 | -34.55330 | -58.42640 | 71 ft | 135 kts | 124° |
| 2026-05-06 03:22 | -34.55812 | -58.41779 | 25 ft | 100 kts | 124° |
| 2026-05-06 03:22 | -34.56052 | -58.41348 | 28 ft | 39 kts | 124° |
| 2026-05-06 03:23 | -34.56156 | -58.41162 | 27 ft | 20 kts | 124° |
| 2026-05-06 03:23 | -34.56245 | -58.41126 | 25 ft | 14 kts | 214° |
| 2026-05-06 03:23 | -34.56308 | -58.41177 | 26 ft | 11 kts | 213° |
| 2026-05-06 03:23 | -34.56332 | -58.41220 | 27 ft | 7 kts | 276° |
| 2026-05-06 03:24 | -34.56305 | -58.41278 | 27 ft | 9 kts | 304° |
| 2026-05-06 03:24 | -34.56266 | -58.41347 | 27 ft | 11 kts | 303° |
| 2026-05-06 03:24 | -34.56226 | -58.41420 | 27 ft | 9 kts | 304° |
| 2026-05-06 03:24 | -34.56190 | -58.41481 | 29 ft | 8 kts | 321° |
| 2026-05-06 03:25 | -34.56146 | -58.41493 | 25 ft | 6 kts | 310° |
| 2026-05-06 03:25 | -34.56132 | -58.41518 | 30 ft | 4 kts | 304° |
| 2026-05-06 03:25 | -34.56129 | -58.41524 | 27 ft | 0 kts | 304° |